Time;durP1;ratioP1;P1;durP2;ratioP2;P2;SDS_P1;SDS_P2;PMS_P1;PMS_P2;Temp;Humidity;BMP_temperature;BMP_pressure;BME280_temperature;BME280_humidity;BME280_pressure;Samples;Min_cycle;Max_cycle;Signal;HPM_P1;HPM_P2
2023/06/18 00:01:02;;;;;;;9.10;8.10;;;18.10;99.90;;;;;;5031976;28;20204;-70
2023/06/18 00:03:28;;;;;;;9.00;8.17;;;18.10;99.90;;;;;;5031050;28;20186;-71
2023/06/18 00:05:56;;;;;;;8.50;7.80;;;18.00;99.90;;;;;;5031793;28;20437;-71
2023/06/18 00:08:22;;;;;;;9.10;8.13;;;18.00;99.90;;;;;;5031784;28;20924;-70
2023/06/18 00:10:48;;;;;;;7.67;7.00;;;18.00;99.90;;;;;;5031875;28;20413;-70
2023/06/18 00:13:15;;;;;;;9.97;9.00;;;17.90;99.90;;;;;;5029440;28;20413;-71
2023/06/18 00:15:40;;;;;;;8.50;7.70;;;17.90;99.90;;;;;;5031665;28;20416;-70
2023/06/18 00:18:06;;;;;;;8.73;7.87;;;17.80;99.90;;;;;;5024099;28;20409;-70
2023/06/18 00:20:35;;;;;;;8.17;7.43;;;17.80;99.90;;;;;;5031667;28;20194;-71
2023/06/18 00:23:01;;;;;;;9.63;8.77;;;17.70;99.90;;;;;;5030666;28;20214;-70
2023/06/18 00:25:27;;;;;;;8.70;7.80;;;17.70;99.90;;;;;;5031440;28;20862;-70
2023/06/18 00:27:54;;;;;;;9.00;8.10;;;17.70;99.90;;;;;;5041282;28;20823;-70
2023/06/18 00:30:19;;;;;;;11.53;8.40;;;17.60;99.90;;;;;;5034783;28;20439;-70
2023/06/18 00:32:45;;;;;;;8.70;7.90;;;17.60;99.90;;;;;;5030837;28;20936;-71
2023/06/18 00:35:12;;;;;;;8.57;7.77;;;17.60;99.90;;;;;;5031371;28;20171;-70
2023/06/18 00:37:39;;;;;;;8.87;7.93;;;17.60;99.90;;;;;;5030374;28;20750;-70
2023/06/18 00:40:05;;;;;;;9.03;8.23;;;17.50;99.90;;;;;;5031495;28;20429;-70
2023/06/18 00:42:32;;;;;;;8.80;7.90;;;17.50;99.90;;;;;;5012206;28;20444;-70
2023/06/18 00:44:57;;;;;;;9.80;8.80;;;17.50;99.90;;;;;;5030729;28;20444;-70
2023/06/18 00:47:24;;;;;;;9.43;8.53;;;17.40;99.90;;;;;;5031060;28;20514;-70
2023/06/18 00:49:51;;;;;;;9.30;8.47;;;17.40;99.90;;;;;;5031489;28;20198;-71
2023/06/18 00:52:18;;;;;;;9.73;8.83;;;17.30;99.90;;;;;;5030018;28;20463;-70
2023/06/18 00:54:45;;;;;;;9.77;8.27;;;17.30;99.90;;;;;;5030426;28;20462;-71
2023/06/18 00:57:13;;;;;;;9.63;8.73;;;17.30;99.90;;;;;;5029854;28;20445;-71
2023/06/18 00:59:42;;;;;;;8.90;8.10;;;17.40;99.90;;;;;;5030459;28;20988;-71
2023/06/18 01:02:09;;;;;;;9.80;8.93;;;17.50;99.90;;;;;;5030566;28;20425;-70
2023/06/18 01:04:37;;;;;;;10.53;9.60;;;17.50;99.90;;;;;;5030776;28;20437;-71
2023/06/18 01:07:13;;;;;;;9.53;8.53;;;17.40;99.90;;;;;;5031062;28;20468;-71
2023/06/18 01:09:41;;;;;;;9.70;8.43;;;17.40;99.90;;;;;;5031047;28;20520;-71
2023/06/18 01:12:07;;;;;;;9.50;8.63;;;17.50;99.90;;;;;;5030274;28;20492;-71
2023/06/18 01:14:37;;;;;;;8.83;7.93;;;17.50;99.90;;;;;;5030632;28;20547;-71
2023/06/18 01:17:06;;;;;;;10.83;8.97;;;17.40;99.90;;;;;;5029639;28;20494;-71
2023/06/18 01:19:46;;;;;;;9.47;8.57;;;17.30;99.90;;;;;;5030661;28;20816;-70
2023/06/18 01:22:37;;;;;;;9.30;8.37;;;17.10;99.90;;;;;;5030111;28;20420;-71
2023/06/18 01:25:06;;;;;;;9.83;8.77;;;17.00;99.90;;;;;;5030371;28;20531;-71
2023/06/18 01:27:40;;;;;;;9.10;8.20;;;17.00;99.90;;;;;;5030314;28;20462;-71
2023/06/18 01:30:09;;;;;;;9.60;8.70;;;16.90;99.90;;;;;;5030535;28;20441;-71
2023/06/18 01:32:36;;;;;;;8.87;8.07;;;16.80;99.90;;;;;;5029803;28;20412;-71
2023/06/18 01:35:03;;;;;;;9.90;9.00;;;16.80;99.90;;;;;;5030336;28;20460;-71
2023/06/18 01:37:50;;;;;;;9.90;8.90;;;16.70;99.90;;;;;;5029403;28;20464;-70
2023/06/18 01:40:55;;;;;;;9.43;8.50;;;16.70;99.90;;;;;;5030413;28;20754;-70
2023/06/18 01:43:29;;;;;;;9.23;8.43;;;16.80;99.90;;;;;;5027769;28;20428;-70
2023/06/18 01:45:59;;;;;;;9.40;8.10;;;16.80;99.90;;;;;;5029186;28;20759;-70
2023/06/18 01:48:27;;;;;;;8.27;7.47;;;16.80;99.90;;;;;;5030328;28;20436;-70
2023/06/18 01:50:55;;;;;;;8.47;7.37;;;16.80;99.90;;;;;;5030302;28;21282;-71
2023/06/18 01:53:22;;;;;;;8.50;7.70;;;16.90;99.90;;;;;;5027616;28;20440;-71
2023/06/18 01:55:51;;;;;;;9.03;8.23;;;17.00;99.90;;;;;;5030062;28;20417;-71
2023/06/18 01:58:20;;;;;;;11.07;9.93;;;17.10;99.90;;;;;;5028767;28;20911;-71
2023/06/18 02:00:46;;;;;;;9.73;8.83;;;17.20;99.90;;;;;;5030083;28;21119;-71
2023/06/18 02:03:11;;;;;;;8.70;7.90;;;17.30;99.90;;;;;;5029200;28;21104;-71
2023/06/18 02:05:37;;;;;;;9.27;7.87;;;17.30;99.90;;;;;;5029960;28;20655;-71
2023/06/18 02:08:03;;;;;;;9.97;9.07;;;17.40;99.90;;;;;;5029767;28;20214;-71
2023/06/18 02:10:29;;;;;;;10.17;9.10;;;17.20;99.90;;;;;;5029451;28;20181;-71
2023/06/18 02:12:54;;;;;;;9.87;8.97;;;17.20;99.90;;;;;;5027553;28;20236;-71
2023/06/18 02:15:21;;;;;;;9.00;8.10;;;17.20;99.90;;;;;;5029873;28;20178;-71
2023/06/18 02:17:46;;;;;;;9.27;8.33;;;17.30;99.90;;;;;;5029806;28;20182;-71
2023/06/18 02:20:12;;;;;;;9.60;8.63;;;17.30;99.90;;;;;;5029828;28;20444;-71
2023/06/18 02:22:38;;;;;;;8.07;7.37;;;17.20;99.90;;;;;;5029293;28;20182;-71
2023/06/18 02:25:08;;;;;;;9.57;8.70;;;17.30;99.90;;;;;;5029519;28;20182;-70
2023/06/18 02:27:33;;;;;;;8.77;8.00;;;17.30;99.90;;;;;;5038121;28;20455;-71
2023/06/18 02:30:03;;;;;;;8.80;8.00;;;17.30;99.90;;;;;;5049661;28;20442;-71
2023/06/18 02:32:31;;;;;;;9.77;8.87;;;17.30;99.90;;;;;;5049105;28;20174;-71
2023/06/18 02:34:57;;;;;;;9.80;8.90;;;17.30;99.90;;;;;;5036062;28;20774;-71
2023/06/18 02:37:22;;;;;;;9.43;8.43;;;17.20;99.90;;;;;;5029732;28;20433;-71
2023/06/18 02:39:48;;;;;;;10.67;9.20;;;17.20;99.90;;;;;;5029554;28;20433;-71
2023/06/18 02:42:14;;;;;;;9.67;8.70;;;17.20;99.90;;;;;;5028931;28;20174;-71
2023/06/18 02:44:41;;;;;;;8.73;7.93;;;17.20;99.90;;;;;;5029127;28;20681;-71
2023/06/18 02:47:08;;;;;;;10.23;9.37;;;17.30;99.90;;;;;;5029326;28;21160;-71
2023/06/18 02:49:34;;;;;;;11.20;8.40;;;17.30;99.90;;;;;;5029162;28;20471;-71
2023/06/18 02:52:00;;;;;;;10.60;9.70;;;17.20;99.90;;;;;;5028527;28;20775;-71
2023/06/18 02:54:25;;;;;;;9.50;8.37;;;17.30;99.90;;;;;;5028644;28;20497;-70
2023/06/18 02:56:51;;;;;;;9.80;9.00;;;17.40;99.90;;;;;;5022563;28;20770;-71
2023/06/18 02:59:17;;;;;;;9.23;8.43;;;17.40;99.90;;;;;;5028975;28;20206;-71
2023/06/18 03:01:45;;;;;;;10.13;9.23;;;17.30;99.90;;;;;;5028583;28;20731;-71
2023/06/18 03:04:13;;;;;;;10.70;9.60;;;17.30;99.90;;;;;;5028546;28;20444;-71
2023/06/18 03:06:40;;;;;;;10.40;9.40;;;17.40;99.90;;;;;;5025560;28;20479;-71
2023/06/18 03:09:06;;;;;;;9.53;8.73;;;17.40;99.90;;;;;;5028624;28;20449;-71
2023/06/18 03:11:32;;;;;;;9.30;8.50;;;17.30;99.90;;;;;;5028344;28;20498;-71
2023/06/18 03:13:57;;;;;;;9.80;8.90;;;17.30;99.90;;;;;;5025274;28;20436;-71
2023/06/18 03:16:26;;;;;;;9.13;8.20;;;17.40;99.90;;;;;;5028649;28;20178;-71
2023/06/18 03:18:52;;;;;;;10.03;9.07;;;17.40;99.90;;;;;;5028827;28;20210;-71
2023/06/18 03:21:18;;;;;;;9.57;8.30;;;17.30;99.90;;;;;;5028521;28;20796;-71
2023/06/18 03:23:44;;;;;;;9.67;8.70;;;17.30;99.90;;;;;;5030032;28;20182;-71
2023/06/18 03:26:10;;;;;;;9.17;8.37;;;17.40;99.90;;;;;;5032949;28;20186;-72
2023/06/18 03:28:36;;;;;;;9.43;8.40;;;17.40;99.90;;;;;;5032858;28;20469;-72
2023/06/18 03:31:02;;;;;;;9.60;8.70;;;17.40;99.90;;;;;;5033103;28;20405;-71
2023/06/18 03:33:31;;;;;;;10.67;8.87;;;17.30;99.90;;;;;;5032038;28;20409;-70
2023/06/18 03:36:00;;;;;;;10.23;9.33;;;17.30;99.90;;;;;;5033172;28;20417;-71
2023/06/18 03:38:27;;;;;;;9.30;8.50;;;17.30;99.90;;;;;;5032866;28;20437;-70
2023/06/18 03:40:53;;;;;;;9.50;8.60;;;17.30;99.90;;;;;;5032660;28;20430;-69
2023/06/18 03:43:19;;;;;;;9.60;8.80;;;17.20;99.90;;;;;;5031802;28;20425;-71
2023/06/18 03:45:45;;;;;;;8.60;7.80;;;17.10;99.90;;;;;;5032827;28;20179;-70
2023/06/18 03:48:11;;;;;;;9.30;8.43;;;17.10;99.90;;;;;;5032410;28;20872;-71
2023/06/18 03:50:36;;;;;;;11.23;8.63;;;17.10;99.90;;;;;;5032403;28;20186;-71
2023/06/18 03:53:02;;;;;;;9.53;8.73;;;17.10;99.90;;;;;;5031517;28;20232;-71
2023/06/18 03:55:28;;;;;;;9.27;8.47;;;17.20;99.90;;;;;;5031226;28;20193;-71
2023/06/18 03:57:54;;;;;;;11.07;9.40;;;17.20;99.90;;;;;;5031056;28;20187;-71
2023/06/18 04:00:20;;;;;;;9.73;8.77;;;17.30;99.90;;;;;;5032290;28;20190;-69
2023/06/18 04:02:46;;;;;;;9.73;8.93;;;17.30;99.90;;;;;;5031645;28;20419;-70
2023/06/18 04:05:12;;;;;;;9.27;8.43;;;17.40;99.90;;;;;;5031921;28;20474;-70
2023/06/18 04:07:38;;;;;;;9.20;8.30;;;17.30;99.90;;;;;;5032043;28;20508;-71
2023/06/18 04:10:04;;;;;;;9.20;8.40;;;17.30;99.90;;;;;;5030459;28;20507;-70
2023/06/18 04:12:30;;;;;;;10.43;8.70;;;17.30;99.90;;;;;;5029924;28;20417;-71
2023/06/18 04:14:56;;;;;;;8.67;7.97;;;17.30;99.90;;;;;;5031651;28;20417;-70
2023/06/18 04:17:22;;;;;;;8.53;7.80;;;17.20;99.90;;;;;;5030861;28;20550;-70
2023/06/18 04:19:47;;;;;;;9.17;8.23;;;17.20;99.90;;;;;;5031840;28;20229;-69
2023/06/18 04:22:13;;;;;;;10.93;9.40;;;17.30;99.90;;;;;;5030154;28;20197;-70
2023/06/18 04:24:39;;;;;;;9.07;8.20;;;17.30;99.90;;;;;;5027821;28;20281;-70
2023/06/18 04:27:05;;;;;;;9.50;8.70;;;17.30;99.90;;;;;;5033763;28;20262;-69
2023/06/18 04:29:31;;;;;;;9.43;8.43;;;17.30;99.90;;;;;;5031612;28;20201;-70
2023/06/18 04:31:56;;;;;;;10.00;9.00;;;17.30;99.90;;;;;;5030063;28;20895;-69
2023/06/18 04:34:22;;;;;;;9.20;8.37;;;17.30;99.90;;;;;;5028694;28;20178;-70
2023/06/18 04:36:47;;;;;;;8.20;7.50;;;17.40;99.90;;;;;;5031738;28;20662;-71
2023/06/18 04:39:13;;;;;;;8.97;8.17;;;17.40;99.90;;;;;;5031570;28;20336;-70
2023/06/18 04:41:39;;;;;;;11.47;8.37;;;17.50;99.90;;;;;;5030880;28;20190;-69
2023/06/18 04:44:05;;;;;;;10.40;9.40;;;17.60;99.90;;;;;;5031078;28;20190;-70
2023/06/18 04:46:32;;;;;;;9.50;8.60;;;17.60;99.90;;;;;;5031337;28;20217;-70
2023/06/18 04:48:59;;;;;;;9.60;8.70;;;17.60;99.90;;;;;;5030270;28;20206;-71
2023/06/18 04:51:25;;;;;;;10.00;8.60;;;17.60;99.90;;;;;;5030363;28;20444;-70
2023/06/18 04:53:52;;;;;;;9.80;8.00;;;17.60;99.90;;;;;;5031035;28;20413;-71
2023/06/18 04:56:18;;;;;;;9.57;8.77;;;17.70;99.90;;;;;;5031278;28;20911;-70
2023/06/18 04:58:44;;;;;;;8.53;7.73;;;17.80;99.90;;;;;;5031074;28;20441;-71
2023/06/18 05:01:09;;;;;;;8.80;8.00;;;17.90;99.90;;;;;;5031120;28;20940;-70
2023/06/18 05:03:36;;;;;;;8.77;7.87;;;18.00;99.90;;;;;;5030289;28;20183;-70
2023/06/18 05:06:02;;;;;;;9.07;8.27;;;18.10;99.90;;;;;;5030957;28;20206;-70
2023/06/18 05:08:28;;;;;;;8.93;8.03;;;18.10;99.90;;;;;;5028719;28;20461;-70
2023/06/18 05:10:54;;;;;;;8.83;8.10;;;18.20;99.90;;;;;;5030625;28;20417;-70
2023/06/18 05:13:20;;;;;;;9.40;8.50;;;18.20;99.90;;;;;;5028557;28;20185;-70
2023/06/18 05:15:46;;;;;;;9.50;8.23;;;18.30;99.90;;;;;;5029958;28;20179;-71
2023/06/18 05:18:11;;;;;;;8.87;8.07;;;18.40;99.90;;;;;;5030665;28;20487;-71
2023/06/18 05:20:37;;;;;;;8.90;8.10;;;18.60;99.90;;;;;;5029619;28;20185;-71
2023/06/18 05:23:03;;;;;;;10.13;9.03;;;18.70;99.90;;;;;;5029952;28;20205;-70
2023/06/18 05:25:28;;;;;;;9.30;8.50;;;18.80;99.90;;;;;;5030782;28;20170;-70
2023/06/18 05:27:54;;;;;;;9.20;8.30;;;18.90;99.90;;;;;;5030813;28;20206;-70
2023/06/18 05:30:19;;;;;;;9.80;8.90;;;18.90;99.90;;;;;;5030583;28;20181;-71
2023/06/18 05:32:45;;;;;;;8.97;8.10;;;19.10;99.90;;;;;;5029042;28;20174;-71
2023/06/18 05:35:11;;;;;;;9.83;8.90;;;19.10;99.90;;;;;;5028347;28;20640;-71
2023/06/18 05:37:36;;;;;;;9.30;8.40;;;19.20;99.90;;;;;;5030543;28;20186;-70
2023/06/18 05:40:02;;;;;;;9.57;8.67;;;19.30;99.90;;;;;;5030359;28;20567;-71
2023/06/18 05:42:28;;;;;;;8.83;8.10;;;19.40;99.90;;;;;;5029751;28;20202;-69
2023/06/18 05:44:54;;;;;;;9.53;8.60;;;19.50;99.90;;;;;;5029896;28;20413;-71
2023/06/18 05:47:20;;;;;;;9.40;8.53;;;19.60;99.90;;;;;;5030132;28;20222;-71
2023/06/18 05:49:46;;;;;;;9.07;8.17;;;19.70;99.90;;;;;;5030177;28;20429;-70
2023/06/18 05:52:11;;;;;;;8.07;7.37;;;19.80;99.90;;;;;;5029538;28;20210;-70
2023/06/18 05:54:39;;;;;;;9.07;8.17;;;19.80;99.90;;;;;;5028782;28;20193;-70
2023/06/18 05:57:05;;;;;;;8.03;7.33;;;20.00;99.90;;;;;;5029954;28;20178;-69
2023/06/18 05:59:31;;;;;;;9.70;7.67;;;20.00;99.90;;;;;;5029965;28;20837;-71
2023/06/18 06:01:56;;;;;;;9.33;8.23;;;20.10;99.90;;;;;;5029282;28;20416;-70
2023/06/18 06:04:23;;;;;;;8.57;7.77;;;20.20;99.90;;;;;;5029434;28;20480;-70
2023/06/18 06:06:48;;;;;;;8.63;7.83;;;20.20;99.90;;;;;;5028692;28;20452;-71
2023/06/18 06:09:14;;;;;;;8.97;8.17;;;20.30;99.90;;;;;;5029865;28;20431;-71
2023/06/18 06:11:40;;;;;;;7.70;7.00;;;20.40;99.90;;;;;;5029444;28;20202;-71
2023/06/18 06:14:06;;;;;;;8.20;7.50;;;20.50;99.90;;;;;;5028157;28;20189;-69
2023/06/18 06:16:31;;;;;;;10.60;9.00;;;20.60;99.90;;;;;;5029750;28;20166;-71
2023/06/18 06:18:57;;;;;;;9.10;8.30;;;20.60;99.90;;;;;;5028295;28;20202;-70
2023/06/18 06:21:23;;;;;;;9.07;8.17;;;20.70;99.90;;;;;;5029079;28;20183;-70
2023/06/18 06:23:49;;;;;;;9.23;8.20;;;20.80;99.90;;;;;;5024533;28;20273;-72
2023/06/18 06:26:14;;;;;;;8.80;7.50;;;20.80;99.90;;;;;;5029358;28;20444;-70
2023/06/18 06:28:40;;;;;;;9.00;8.20;;;20.90;99.90;;;;;;5029431;28;20198;-70
2023/06/18 06:31:06;;;;;;;8.40;7.60;;;21.00;99.60;;;;;;5029314;28;20190;-71
2023/06/18 06:33:32;;;;;;;9.43;7.67;;;21.10;99.80;;;;;;5027149;28;20190;-70
2023/06/18 06:35:58;;;;;;;8.47;7.73;;;21.20;99.90;;;;;;5029438;28;20523;-70
2023/06/18 06:38:23;;;;;;;8.63;7.93;;;21.20;99.90;;;;;;5029161;28;20202;-71
2023/06/18 06:40:49;;;;;;;8.57;7.77;;;21.20;99.90;;;;;;5029454;28;20213;-72
2023/06/18 06:43:15;;;;;;;9.00;8.10;;;21.30;99.90;;;;;;5020288;28;20248;-69
2023/06/18 06:45:41;;;;;;;8.93;8.13;;;21.40;99.90;;;;;;5025962;28;20655;-70
2023/06/18 06:48:07;;;;;;;8.43;7.73;;;21.50;99.90;;;;;;5026850;28;20217;-69
2023/06/18 06:50:32;;;;;;;9.50;8.70;;;21.50;99.90;;;;;;5028172;28;20512;-72
2023/06/18 06:52:58;;;;;;;8.90;8.13;;;21.70;99.80;;;;;;5026374;28;20209;-70
2023/06/18 06:55:24;;;;;;;8.20;7.47;;;21.80;99.80;;;;;;5028900;28;20616;-71
2023/06/18 06:57:49;;;;;;;9.13;8.17;;;21.90;99.90;;;;;;5028110;28;20751;-70
2023/06/18 07:00:16;;;;;;;8.70;7.90;;;22.00;99.80;;;;;;5028936;28;20206;-70
2023/06/18 07:02:41;;;;;;;8.53;7.83;;;22.20;99.60;;;;;;5025191;28;20240;-72
2023/06/18 07:05:08;;;;;;;8.07;7.37;;;22.30;99.30;;;;;;5027624;28;20437;-71
2023/06/18 07:07:35;;;;;;;8.73;7.73;;;22.40;99.40;;;;;;5027516;28;20207;-70
2023/06/18 07:10:02;;;;;;;9.77;7.77;;;22.50;99.10;;;;;;5027779;28;20433;-70
2023/06/18 07:12:27;;;;;;;9.03;8.20;;;22.60;98.70;;;;;;5027063;28;20457;-71
2023/06/18 07:14:53;;;;;;;9.57;8.73;;;22.60;98.60;;;;;;5028543;28;20914;-70
2023/06/18 07:17:19;;;;;;;8.43;7.27;;;22.70;98.60;;;;;;5028766;28;20204;-70
2023/06/18 07:19:44;;;;;;;8.07;7.27;;;22.80;98.30;;;;;;5028165;28;20201;-70
2023/06/18 07:22:10;;;;;;;8.50;7.70;;;22.80;98.80;;;;;;5016426;28;20574;-70
2023/06/18 07:24:36;;;;;;;9.10;7.90;;;22.90;98.10;;;;;;5013551;28;20560;-71
2023/06/18 07:27:02;;;;;;;9.10;8.30;;;22.90;98.50;;;;;;5016637;28;20213;-70
2023/06/18 07:29:27;;;;;;;12.20;8.40;;;23.00;98.00;;;;;;5028648;28;20256;-69
2023/06/18 07:31:53;;;;;;;8.43;7.73;;;23.00;98.30;;;;;;5027704;28;20432;-72
2023/06/18 07:34:19;;;;;;;9.60;8.80;;;23.10;97.60;;;;;;5028179;28;20590;-69
2023/06/18 07:36:44;;;;;;;8.20;7.40;;;23.20;98.20;;;;;;5028690;28;20228;-70
2023/06/18 07:39:10;;;;;;;8.80;8.03;;;23.30;98.80;;;;;;5028489;28;20256;-70
2023/06/18 07:41:36;;;;;;;9.67;7.90;;;23.40;98.80;;;;;;5025474;28;20190;-70
2023/06/18 07:44:01;;;;;;;8.77;8.07;;;23.40;98.20;;;;;;5025041;28;20239;-71
2023/06/18 07:46:27;;;;;;;8.97;8.27;;;23.40;97.30;;;;;;5028716;28;20218;-70
2023/06/18 07:48:53;;;;;;;8.30;7.60;;;23.50;97.40;;;;;;5027883;28;20198;-70
2023/06/18 07:51:19;;;;;;;7.63;7.00;;;23.60;97.40;;;;;;5028033;28;20190;-71
2023/06/18 07:53:45;;;;;;;8.67;7.77;;;23.60;97.60;;;;;;5028108;28;20599;-72
2023/06/18 07:56:10;;;;;;;9.37;8.60;;;23.70;98.20;;;;;;5026961;28;20257;-70
2023/06/18 07:58:36;;;;;;;8.53;7.83;;;23.80;97.90;;;;;;5019916;28;20504;-70
2023/06/18 08:01:02;;;;;;;10.20;9.30;;;23.80;97.70;;;;;;5028030;28;20186;-72
2023/06/18 08:03:27;;;;;;;8.50;7.70;;;23.90;97.80;;;;;;5026957;28;20597;-70
2023/06/18 08:05:53;;;;;;;9.10;8.20;;;24.00;97.60;;;;;;5027952;28;20395;-71
2023/06/18 08:08:19;;;;;;;9.53;8.47;;;24.00;97.70;;;;;;5027278;28;20271;-70
2023/06/18 08:10:45;;;;;;;8.33;7.50;;;24.10;97.60;;;;;;5032013;28;20182;-70
2023/06/18 08:13:10;;;;;;;8.57;7.77;;;24.20;96.80;;;;;;5029571;28;20417;-70
2023/06/18 08:15:36;;;;;;;8.63;7.83;;;24.20;96.50;;;;;;5031933;28;20178;-70
2023/06/18 08:18:02;;;;;;;9.67;8.73;;;24.30;96.30;;;;;;5031743;28;20190;-74
2023/06/18 08:20:27;;;;;;;9.30;8.40;;;24.40;96.10;;;;;;5031702;28;20186;-70
2023/06/18 08:22:53;;;;;;;8.30;7.60;;;24.40;94.30;;;;;;5031023;28;20182;-70
2023/06/18 08:25:19;;;;;;;8.17;7.47;;;24.50;94.10;;;;;;5028088;28;20201;-70
2023/06/18 08:27:44;;;;;;;7.63;7.03;;;24.50;94.80;;;;;;5033476;28;20301;-71
2023/06/18 08:30:10;;;;;;;8.70;7.90;;;24.60;94.80;;;;;;5031584;28;20209;-70
2023/06/18 08:32:38;;;;;;;7.90;7.13;;;24.70;95.00;;;;;;5031028;28;20174;-70
2023/06/18 08:35:05;;;;;;;8.27;7.60;;;24.80;94.10;;;;;;5031379;28;20186;-70
2023/06/18 08:37:31;;;;;;;7.83;7.10;;;24.90;92.60;;;;;;5031484;28;20405;-69
2023/06/18 08:39:56;;;;;;;7.67;7.07;;;25.00;92.40;;;;;;5031384;28;20433;-70
2023/06/18 08:42:22;;;;;;;7.73;7.03;;;25.10;88.20;;;;;;5030893;28;20224;-70
2023/06/18 08:44:50;;;;;;;8.73;7.93;;;25.20;87.90;;;;;;5030834;28;20201;-70
2023/06/18 08:47:16;;;;;;;8.10;7.50;;;25.20;88.30;;;;;;5031308;28;20984;-71
2023/06/18 08:49:43;;;;;;;8.97;7.67;;;25.30;88.10;;;;;;5031292;28;20448;-70
2023/06/18 08:52:10;;;;;;;7.20;6.60;;;25.40;86.00;;;;;;5030828;28;20484;-70
2023/06/18 08:54:38;;;;;;;7.53;6.93;;;25.40;86.50;;;;;;5030914;28;20413;-71
2023/06/18 08:57:18;;;;;;;8.03;7.33;;;25.50;85.70;;;;;;5030325;28;20477;-73
2023/06/18 08:59:45;;;;;;;8.43;7.73;;;25.60;85.70;;;;;;5029407;28;20437;-72
2023/06/18 09:02:12;;;;;;;7.90;7.20;;;25.70;83.30;;;;;;5025998;28;20535;-71
2023/06/18 09:04:39;;;;;;;7.67;6.97;;;25.70;82.60;;;;;;5020419;28;20442;-70
2023/06/18 09:07:05;;;;;;;8.27;7.47;;;25.80;81.90;;;;;;5015016;28;20457;-71
2023/06/18 09:09:31;;;;;;;7.30;6.60;;;25.80;78.10;;;;;;5018111;28;20839;-70
2023/06/18 09:11:57;;;;;;;7.43;6.73;;;25.90;76.50;;;;;;5017344;28;20448;-71
2023/06/18 09:14:24;;;;;;;6.90;6.30;;;26.00;75.70;;;;;;5022818;28;20194;-71
2023/06/18 09:16:52;;;;;;;6.77;6.17;;;26.00;73.50;;;;;;5025727;28;20448;-70
2023/06/18 09:19:19;;;;;;;8.90;7.30;;;26.10;74.00;;;;;;5023708;28;20515;-70
2023/06/18 09:21:46;;;;;;;7.07;6.47;;;26.20;69.20;;;;;;5025374;28;20442;-73
2023/06/18 09:24:18;;;;;;;7.30;6.60;;;26.30;68.60;;;;;;5044422;28;20405;-71
2023/06/18 09:26:44;;;;;;;6.80;6.20;;;26.40;73.90;;;;;;5019628;28;20518;-69
2023/06/18 09:29:11;;;;;;;7.40;6.80;;;26.60;71.80;;;;;;5022809;28;20821;-70
2023/06/18 09:31:44;;;;;;;8.53;7.50;;;26.60;69.20;;;;;;5018505;28;20218;-70
2023/06/18 09:34:16;;;;;;;7.57;6.87;;;26.70;68.20;;;;;;5016487;28;20915;-69
2023/06/18 09:36:47;;;;;;;7.70;7.00;;;26.70;67.70;;;;;;5010879;28;20410;-70
2023/06/18 09:39:21;;;;;;;7.10;6.40;;;26.70;67.80;;;;;;5010638;28;20512;-71
2023/06/18 09:41:49;;;;;;;7.00;6.30;;;26.70;63.30;;;;;;5009979;28;20450;-69
2023/06/18 09:44:15;;;;;;;6.80;6.10;;;26.70;64.90;;;;;;5010191;28;20425;-70
2023/06/18 09:46:46;;;;;;;6.60;6.10;;;26.70;63.30;;;;;;5010534;28;20469;-70
2023/06/18 09:49:20;;;;;;;8.03;7.23;;;26.70;66.80;;;;;;5010306;28;20430;-71
2023/06/18 09:51:48;;;;;;;7.53;6.80;;;26.80;67.10;;;;;;5009777;28;20409;-70
2023/06/18 09:54:14;;;;;;;7.00;6.40;;;26.90;65.60;;;;;;5010046;28;21022;-71
2023/06/18 09:57:02;;;;;;;7.27;6.67;;;27.00;63.60;;;;;;5014363;28;20500;-70
2023/06/18 09:59:29;;;;;;;7.90;7.20;;;27.20;67.00;;;;;;5029957;28;20214;-70
2023/06/18 10:01:55;;;;;;;6.67;6.17;;;27.40;63.20;;;;;;5029336;28;20421;-70
2023/06/18 10:04:21;;;;;;;7.50;6.90;;;27.40;63.00;;;;;;5029455;28;20437;-70
2023/06/18 10:06:50;;;;;;;6.93;6.43;;;27.60;61.00;;;;;;5029496;28;20961;-70
2023/06/18 10:09:18;;;;;;;7.87;7.17;;;27.70;59.30;;;;;;5028784;28;21163;-70
2023/06/18 10:11:47;;;;;;;8.30;6.50;;;27.80;59.40;;;;;;5009673;28;20508;-70
2023/06/18 10:14:13;;;;;;;7.33;6.63;;;27.90;59.90;;;;;;5009099;28;20418;-70
2023/06/18 10:16:47;;;;;;;7.43;6.83;;;27.90;57.80;;;;;;5010059;28;20429;-70
2023/06/18 10:19:36;;;;;;;7.10;6.50;;;27.80;56.20;;;;;;5009869;28;20215;-70
2023/06/18 10:22:03;;;;;;;6.17;5.67;;;27.80;57.20;;;;;;5007947;28;20433;-70
2023/06/18 10:24:40;;;;;;;6.60;6.10;;;27.80;55.40;;;;;;5013126;28;20513;-70
2023/06/18 10:27:07;;;;;;;7.10;6.50;;;27.90;55.10;;;;;;5024446;28;20494;-70
2023/06/18 10:29:33;;;;;;;7.03;6.43;;;27.90;55.60;;;;;;5022693;28;20437;-70
2023/06/18 10:32:04;;;;;;;7.30;6.60;;;28.00;55.80;;;;;;5011370;28;20444;-70
2023/06/18 10:34:31;;;;;;;7.47;6.77;;;27.90;55.20;;;;;;5009264;28;20409;-69
2023/06/18 10:36:58;;;;;;;7.80;7.20;;;27.90;55.90;;;;;;5009745;28;20418;-70
2023/06/18 10:39:25;;;;;;;7.37;6.50;;;27.90;55.10;;;;;;5009347;28;20487;-70
2023/06/18 10:41:54;;;;;;;7.80;7.00;;;28.00;56.10;;;;;;5008853;28;20429;-70
2023/06/18 10:44:33;;;;;;;6.83;6.30;;;28.10;53.10;;;;;;5009098;28;20830;-70
2023/06/18 10:47:18;;;;;;;7.03;6.40;;;28.10;51.50;;;;;;5009689;28;20465;-70
2023/06/18 10:50:17;;;;;;;7.50;6.70;;;28.00;53.00;;;;;;5009340;28;20916;-70
2023/06/18 10:52:49;;;;;;;7.57;6.97;;;28.00;54.30;;;;;;4985975;28;20426;-70
2023/06/18 10:55:20;;;;;;;6.93;6.40;;;28.00;53.70;;;;;;5009163;28;20483;-71
2023/06/18 10:57:55;;;;;;;6.60;6.10;;;27.90;53.90;;;;;;5021399;28;20464;-70
2023/06/18 11:00:29;;;;;;;7.80;7.20;;;27.80;51.70;;;;;;5025773;28;20419;-70
2023/06/18 11:03:10;;;;;;;8.23;7.10;;;27.80;54.00;;;;;;5024497;28;20471;-70
2023/06/18 11:05:47;;;;;;;7.37;6.77;;;27.90;52.60;;;;;;5022752;28;20441;-70
2023/06/18 11:08:14;;;;;;;6.37;5.87;;;27.90;53.50;;;;;;5017402;28;20572;-71
2023/06/18 11:10:48;;;;;;;7.73;7.03;;;27.90;53.30;;;;;;5026238;28;20490;-70
2023/06/18 11:13:15;;;;;;;7.17;6.50;;;28.00;54.50;;;;;;5022190;28;20424;-70
2023/06/18 11:15:58;;;;;;;7.13;6.47;;;28.10;56.50;;;;;;5028990;28;20413;-70
2023/06/18 11:18:27;;;;;;;6.93;6.13;;;28.30;55.10;;;;;;5028824;28;20840;-70
2023/06/18 11:20:55;;;;;;;8.33;7.10;;;28.20;52.40;;;;;;5029163;28;20408;-70
2023/06/18 11:23:22;;;;;;;7.00;6.30;;;28.20;53.30;;;;;;5027690;28;21171;-69
2023/06/18 11:25:49;;;;;;;7.10;6.50;;;28.10;53.70;;;;;;5028733;28;20425;-69
2023/06/18 11:28:16;;;;;;;6.77;6.23;;;28.20;55.50;;;;;;5028620;28;20476;-70
2023/06/18 11:30:48;;;;;;;7.33;6.73;;;28.20;55.30;;;;;;5028598;28;20516;-70
2023/06/18 11:33:20;;;;;;;7.40;6.67;;;28.40;54.60;;;;;;5027824;28;20421;-70
2023/06/18 11:35:45;;;;;;;7.73;7.13;;;28.60;56.30;;;;;;5028964;28;20475;-70
2023/06/18 11:38:12;;;;;;;6.67;6.17;;;28.80;57.20;;;;;;5026671;28;20942;-70
2023/06/18 11:40:51;;;;;;;7.17;6.50;;;29.00;55.80;;;;;;5026790;28;20215;-70
2023/06/18 11:43:17;;;;;;;6.70;6.10;;;29.20;55.50;;;;;;5020210;28;20654;-70
2023/06/18 11:45:50;;;;;;;8.00;7.30;;;29.30;57.40;;;;;;5021538;28;20446;-70
2023/06/18 11:48:19;;;;;;;6.30;5.80;;;29.50;56.40;;;;;;5021807;28;20492;-70
2023/06/18 11:50:49;;;;;;;8.63;6.50;;;29.60;53.50;;;;;;5023372;28;20493;-70
2023/06/18 11:53:15;;;;;;;6.97;6.43;;;29.50;49.60;;;;;;5020947;28;20410;-70
2023/06/18 11:55:41;;;;;;;7.30;6.70;;;29.50;50.60;;;;;;5021947;28;20484;-70
2023/06/18 11:58:07;;;;;;;7.30;6.60;;;29.30;49.80;;;;;;5022816;28;20556;-70
2023/06/18 12:00:33;;;;;;;7.33;6.83;;;29.30;52.30;;;;;;5024658;28;20437;-70
2023/06/18 12:03:02;;;;;;;6.73;6.23;;;29.50;53.90;;;;;;5030344;28;20417;-70
2023/06/18 12:05:37;;;;;;;7.30;6.60;;;29.50;54.30;;;;;;5024563;28;20286;-70
2023/06/18 12:08:13;;;;;;;7.30;6.70;;;29.50;53.20;;;;;;5028974;28;20837;-70
2023/06/18 12:10:41;;;;;;;7.97;7.27;;;29.50;51.10;;;;;;5030354;28;20784;-70
2023/06/18 12:13:15;;;;;;;7.20;6.63;;;29.40;52.10;;;;;;5022555;28;20510;-70
2023/06/18 12:15:56;;;;;;;8.87;7.97;;;29.30;52.70;;;;;;5021905;28;20412;-70
2023/06/18 12:18:29;;;;;;;7.70;7.10;;;29.20;52.90;;;;;;5022456;28;20448;-71
2023/06/18 12:20:56;;;;;;;7.90;7.10;;;29.20;53.80;;;;;;5020711;28;20445;-70
2023/06/18 12:23:22;;;;;;;7.43;6.83;;;29.10;52.40;;;;;;5024833;28;20429;-70
2023/06/18 12:25:48;;;;;;;7.00;6.40;;;29.00;52.80;;;;;;5023699;28;20429;-70
2023/06/18 12:28:14;;;;;;;7.90;7.30;;;28.90;54.90;;;;;;5029756;28;20561;-71
2023/06/18 12:30:41;;;;;;;6.90;6.30;;;29.00;53.70;;;;;;5019844;28;20497;-71
2023/06/18 12:33:12;;;;;;;7.23;6.50;;;29.00;51.70;;;;;;5020126;28;20898;-70
2023/06/18 12:35:41;;;;;;;7.90;7.30;;;29.10;52.00;;;;;;5022619;28;20416;-70
2023/06/18 12:38:09;;;;;;;7.63;6.93;;;29.10;51.10;;;;;;5022332;28;20422;-70
2023/06/18 12:40:50;;;;;;;7.67;7.07;;;29.10;51.50;;;;;;5021692;28;20426;-70
2023/06/18 12:43:17;;;;;;;7.33;6.80;;;29.10;49.90;;;;;;5024532;28;20443;-70
2023/06/18 12:45:45;;;;;;;8.00;7.30;;;29.30;50.10;;;;;;5029566;28;20476;-71
2023/06/18 12:48:16;;;;;;;7.93;7.23;;;29.30;49.00;;;;;;5030890;28;20465;-70